• Join FlightAware (Why Join?)
  • Login
  • US Flag 
10:48PM EDT


 

Airport Tracker/Info


-or-


 

Live Flight TrackerFlight Track Log ✈ SWA213 ✈ 14-May-2013 ✈ KMSY - KMCO

Flight Track Log - Related Links

Times and Time Zones

All times are in EDT time to prevent confusion due to time zone crossing. See the SWA213 flight status page for this flight to view local times or setup timezone preferences in your user account.

Time Position Orientation Groundspeed Altitude Reporting Facility
EDT Latitude Longitude Course Direction KTS MPH feet Rate Location/Type
01:49PM 29.8944 -90.2592 180° South 233 268 4,200  Level Houston Center
01:50PM 29.8336 -90.2022 141° Southeast 270 311 7,300 3,180 Climbing Houston Center
01:51PM 29.7592 -90.1358 142° Southeast 279 321 10,800 2,640 Climbing Houston Center
01:52PM 29.7019 -90.0517 128° Southeast 318 366 12,800 2,220 Climbing Houston Center
01:53PM 29.6489 -89.9614 124° Southeast 337 388 15,400 2,160 Climbing Houston Center
01:54PM 29.5919 -89.8683 125° Southeast 347 399 17,300 1,560 Climbing Houston Center
01:55PM 29.5311 -89.7686 125° Southeast 362 417 18,700 1,860 Climbing Houston Center
01:56PM 29.4542 -89.6406 125° Southeast 387 445 21,200 1,980 Climbing Houston Center
01:58PM 29.3897 -89.5294 124° Southeast 406 467 22,900 1,500 Climbing Houston Center
01:59PM 29.3219 -89.4169 125° Southeast 423 487 24,400 1,440 Climbing Houston Center
02:00PM 29.2522 -89.3014 125° Southeast 435 501 25,900 1,320 Climbing Houston Center
02:01PM 29.1800 -89.1847 125° Southeast 444 511 27,200 1,080 Climbing Houston Center
02:02PM 29.1056 -89.0619 125° Southeast 461 531 28,200 1,020 Climbing Houston Center
02:03PM 29.0150 -88.9119 125° Southeast 474 545 29,400 1,200 Climbing Houston Center
02:04PM 28.9364 -88.7861 126° Southeast 483 556 30,700 1,200 Climbing Houston Center
02:05PM 28.8683 -88.6542 120° Southeast 483 556 32,000 900 Climbing Houston Center
02:06PM 28.8294 -88.5036 106° East 489 563 32,600 480 Climbing Houston Center
02:07PM 28.7886 -88.3522 107° East 496 571 33,000 180 Climbing Houston Center
02:08PM 28.7456 -88.2017 108° East 501 577 33,000  Level Houston Center
02:09PM 28.6939 -88.0186 108° East 501 577 33,000 300 Level Houston Center
02:10PM 28.6500 -87.8678 108° East 501 577 33,700 720 Climbing Houston Center
02:11PM 28.6072 -87.7169 108° East 502 578 34,600 600 Climbing Houston Center
02:12PM 28.5717 -87.5747 106° East 492 566 35,000 180 Climbing Jacksonville Center
02:13PM 28.5331 -87.4314 107° East 484 557 35,000  Level Jacksonville Center
02:14PM 28.4842 -87.2733 109° East 494 568 35,000  Level Jacksonville Center
02:15PM 28.4392 -87.1225 109° East 501 577 35,000  Level Jacksonville Center
02:16PM 28.3919 -86.9697 109° East 500 575 35,000  Level Jacksonville Center
02:17PM 28.3508 -86.8217 107° East 494 568 35,000  Level Jacksonville Center
02:18PM 28.3072 -86.6739 108° East 499 574 35,000  Level Jacksonville Center
02:19PM 28.2617 -86.5144 108° East 505 581 35,000  Level Jacksonville Center
02:20PM 28.2178 -86.3692 109° East 502 578 35,000  Level Jacksonville Center
02:21PM 28.1736 -86.2242 109° East 502 578 35,000  Level Jacksonville Center
02:22PM 28.1275 -86.0625 108° East 507 583 35,000  Level Jacksonville Center
02:23PM 28.0833 -85.9106 108° East 507 583 35,000  Level Jacksonville Center
02:24PM 28.0367 -85.7611 109° East 512 589 35,000  Level Jacksonville Center
02:25PM 27.9900 -85.6069 109° East 506 582 35,000  Level Jacksonville Center
02:27PM 27.8847 -85.2064 106° East 514 592 35,000  Level Miami Center
02:28PM 27.8794 -85.0444 92° East 504 580 35,000 -300 Level Miami Center
02:29PM 27.8708 -84.9031 94° East 509 586 34,400 -780 Descending Miami Center
02:30PM 27.8778 -84.7417 87° East 514 592 33,500 -900 Descending Miami Center
02:31PM 27.8722 -84.5772 92° East 521 600 32,600 -960 Descending Miami Center
02:32PM 27.8703 -84.4150 91° East 521 600 31,600 -840 Descending Miami Center
02:33PM 27.8706 -84.2511 90° East 516 594 31,000 -360 Descending Miami Center
02:34PM 27.8639 -84.0933 93° East 516 594 30,900  Descending Miami Center
02:35PM 27.8633 -83.9361 90° East 511 588 31,000  Climbing Miami Center
02:36PM 27.8608 -83.7764 91° East 506 582 31,000 -840 Level Miami Center
02:37PM 27.8556 -83.6236 92° East 500 575 29,400 -2,400 Descending Miami Center
02:38PM 27.8542 -83.4733 91° East 495 570 26,300 -3,000 Descending Miami Center
02:39PM 27.8481 -83.3347 93° East 468 539 23,400 -1,680 Descending Miami Center
02:40PM 27.8433 -83.2031 92° East 441 507 23,000 -240 Descending Miami Center
02:41PM 27.8428 -83.0717 90° East 422 486 23,000  Level Miami Center
02:42PM 27.8403 -82.9400 91° East 422 486 23,000  Level Miami Center
02:43PM 27.8297 -82.7894 94° East 428 493 23,000  Level Miami Center
02:44PM 27.8269 -82.6531 91° East 428 493 23,000 -300 Level Miami Center
02:45PM 27.8344 -82.5197 86° East 423 487 22,400 -900 Descending Miami Center
02:46PM 27.8708 -82.3900 72° East 418 481 21,300 -1,020 Descending Miami Center
02:47PM 27.9089 -82.2628 71° East 418 481 20,400 -1,680 Descending Miami Center
02:48PM 27.9442 -82.1542 70° East 411 473 18,000 -2,220 Descending Miami Center
02:51PM 28.0500 -81.8833 66° East 344 396 13,000 -1,800 Descending Orlando TRACON
02:52PM 28.0833 -81.7833 69° East 297 342 12,000 -1,260 Descending Orlando TRACON
02:53PM 28.1167 -81.7000 66° East 300 345 10,500 -1,800 Descending Orlando TRACON
02:54PM 28.1500 -81.6167 66° East 288 331 8,500 -1,860 Descending Orlando TRACON
02:55PM 28.1833 -81.5333 66° East 282 325 6,800 -1,560 Descending Orlando TRACON
02:56PM 28.2167 -81.4500 66° East 264 304 5,400 -1,500 Descending Orlando TRACON
02:57PM 28.2500 -81.3833 60° Northeast 254 292 3,900 -1,260 Descending Orlando TRACON
02:58PM 28.3000 -81.3500 30° Northeast 222 255 3,000 -900 Descending Orlando TRACON
02:59PM 28.3333 -81.3000 53° Northeast 148 170 2,200 -1,140 Descending Orlando TRACON
03:00PM 28.3667 -81.3000 360° North 138 159 800 -1,440 Descending Orlando TRACON
03:02PM 28.4294 -81.3090 North  Level Estimated
03:09PM 28.4294 -81.3090 161° South  Level Estimated